createdAt,value
2018-02-09T00:00:06.068Z,36.38
2018-02-09T00:02:32.723Z,33.97
2018-02-09T00:04:59.363Z,30.35
2018-02-09T00:07:26.006Z,31.25
2018-02-09T00:09:52.663Z,33.88
2018-02-09T00:12:20.101Z,31.58
2018-02-09T00:14:46.841Z,29.67
2018-02-09T00:17:13.509Z,32.63
2018-02-09T00:19:40.165Z,32.50
2018-02-09T00:22:06.855Z,30.98
2018-02-09T00:24:33.500Z,32.20
2018-02-09T00:27:00.262Z,34.80
2018-02-09T00:29:27.929Z,31.27
2018-02-09T00:31:54.582Z,37.05
2018-02-09T00:34:21.239Z,31.65
2018-02-09T00:36:47.920Z,31.25
2018-02-09T00:39:14.596Z,31.90
2018-02-09T00:41:41.268Z,31.98
2018-02-09T00:44:07.934Z,28.40
2018-02-09T00:46:35.465Z,32.03
2018-02-09T00:49:02.122Z,31.12
2018-02-09T00:51:28.777Z,30.92
2018-02-09T00:53:55.458Z,30.42
2018-02-09T00:56:22.111Z,32.35
2018-02-09T00:58:49.270Z,30.52
2018-02-09T01:01:15.925Z,29.85
2018-02-09T01:03:42.567Z,33.60
2018-02-09T01:06:09.204Z,30.83
2018-02-09T01:08:35.832Z,32.97
2018-02-09T01:11:02.493Z,32.00
2018-02-09T01:13:29.120Z,33.22
2018-02-09T01:15:55.767Z,33.10
2018-02-09T01:18:22.499Z,32.10
2018-02-09T01:20:49.127Z,32.13
2018-02-09T01:23:15.759Z,29.67
2018-02-09T01:25:42.464Z,30.27
2018-02-09T01:28:13.076Z,29.12
2018-02-09T01:30:39.808Z,29.58
2018-02-09T01:33:07.373Z,31.02
2018-02-09T01:35:37.988Z,31.27
2018-02-09T01:38:04.618Z,30.83
2018-02-09T01:40:31.244Z,29.33
2018-02-09T01:42:57.907Z,31.37
2018-02-09T01:45:24.543Z,29.42
2018-02-09T01:47:52.010Z,30.50
2018-02-09T01:50:18.644Z,29.80
2018-02-09T01:52:45.287Z,30.90
2018-02-09T01:55:11.986Z,28.35
2018-02-09T01:57:38.639Z,31.33
2018-02-09T02:00:05.327Z,29.08
2018-02-09T02:02:31.947Z,30.20
2018-02-09T02:04:58.594Z,30.42
2018-02-09T02:07:25.215Z,29.87
2018-02-09T02:09:51.964Z,30.02
2018-02-09T02:12:18.609Z,31.70
2018-02-09T02:14:45.269Z,28.87
2018-02-09T02:17:11.887Z,28.77
2018-02-09T02:19:38.532Z,29.52
2018-02-09T02:22:05.135Z,30.75
2018-02-09T02:24:31.787Z,30.42
2018-02-09T02:26:58.417Z,30.05
2018-02-09T02:29:25.068Z,29.00
2018-02-09T02:31:51.874Z,31.92
2018-02-09T02:34:18.512Z,32.28
2018-02-09T02:36:46.033Z,32.10
2018-02-09T02:39:12.720Z,34.30
2018-02-09T02:41:39.404Z,31.25
2018-02-09T02:44:06.028Z,31.80
2018-02-09T02:46:32.699Z,33.30
2018-02-09T02:48:59.342Z,33.00
2018-02-09T02:51:29.916Z,35.75
2018-02-09T02:53:57.311Z,33.50
2018-02-09T02:56:23.951Z,32.83
2018-02-09T02:58:50.583Z,33.10
2018-02-09T03:01:17.212Z,33.45
2018-02-09T03:03:43.852Z,33.63
2018-02-09T03:06:10.505Z,32.05
2018-02-09T03:08:37.133Z,32.95
2018-02-09T03:11:03.771Z,33.50
2018-02-09T03:13:30.415Z,31.15
2018-02-09T03:15:57.046Z,30.55
2018-02-09T03:18:23.672Z,28.45
2018-02-09T03:20:50.331Z,29.85
2018-02-09T03:23:16.995Z,30.20
2018-02-09T03:25:43.640Z,30.55
2018-02-09T03:28:10.371Z,30.33
2018-02-09T03:30:37.006Z,33.53
2018-02-09T03:33:03.635Z,30.80
2018-02-09T03:35:30.356Z,30.23
2018-02-09T03:37:56.969Z,32.75
2018-02-09T03:40:23.619Z,31.58
2018-02-09T03:42:50.250Z,30.67
2018-02-09T03:45:16.896Z,29.87
2018-02-09T03:47:43.561Z,30.35
2018-02-09T03:50:10.225Z,30.58
2018-02-09T03:52:36.980Z,30.62
2018-02-09T03:55:03.608Z,32.92
2018-02-09T03:57:30.219Z,29.63
2018-02-09T03:59:56.860Z,31.35
2018-02-09T04:02:23.503Z,33.83
2018-02-09T04:04:50.150Z,31.37
2018-02-09T04:07:17.604Z,31.45
2018-02-09T04:09:44.239Z,32.15
2018-02-09T04:12:10.938Z,29.42
2018-02-09T04:14:37.556Z,29.27
2018-02-09T04:17:04.218Z,30.05
2018-02-09T04:19:30.836Z,29.70
2018-02-09T04:21:57.607Z,29.80
2018-02-09T04:24:24.947Z,30.55
2018-02-09T04:26:51.640Z,28.23
2018-02-09T04:29:18.271Z,30.42
2018-02-09T04:31:44.948Z,29.58
2018-02-09T04:34:15.826Z,29.40
2018-02-09T04:36:42.459Z,28.50
2018-02-09T04:39:09.116Z,30.77
2018-02-09T04:41:35.743Z,26.50
2018-02-09T04:44:02.554Z,28.02
2018-02-09T04:46:33.388Z,27.90
2018-02-09T04:49:00.049Z,29.33
2018-02-09T04:51:27.562Z,29.12
2018-02-09T04:53:54.234Z,27.37
2018-02-09T04:56:20.875Z,30.52
2018-02-09T04:58:47.547Z,29.50
2018-02-09T05:01:14.675Z,28.45
2018-02-09T05:03:41.312Z,29.50
2018-02-09T05:06:07.962Z,28.77
2018-02-09T05:08:34.603Z,29.63
2018-02-09T05:11:01.319Z,26.67
2018-02-09T05:13:27.952Z,28.40
2018-02-09T05:15:54.668Z,26.42
2018-02-09T05:18:21.335Z,27.50
2018-02-09T05:20:48.787Z,27.30
2018-02-09T05:23:16.110Z,28.25
2018-02-09T05:25:42.762Z,26.25
2018-02-09T05:28:09.416Z,27.77
2018-02-09T05:30:36.076Z,28.50
2018-02-09T05:33:02.808Z,28.73
2018-02-09T05:35:29.485Z,29.02
2018-02-09T05:37:56.136Z,28.50
2018-02-09T05:40:22.771Z,27.45
2018-02-09T05:42:50.403Z,26.60
2018-02-09T05:45:17.045Z,28.60
2018-02-09T05:47:43.711Z,25.83
2018-02-09T05:50:10.351Z,29.20
2018-02-09T05:52:37.024Z,27.08
2018-02-09T05:55:03.668Z,26.92
2018-02-09T05:57:31.087Z,28.67
2018-02-09T05:59:57.707Z,28.95
2018-02-09T06:02:24.371Z,29.73
2018-02-09T06:04:51.024Z,28.83
2018-02-09T06:07:17.647Z,26.10
2018-02-09T06:09:44.297Z,27.45
2018-02-09T06:12:11.601Z,29.00
2018-02-09T06:14:38.241Z,29.90
2018-02-09T06:17:04.930Z,27.62
2018-02-09T06:19:31.626Z,28.30
2018-02-09T06:21:58.567Z,27.20
2018-02-09T06:24:25.214Z,28.48
2018-02-09T06:26:51.844Z,27.33
2018-02-09T06:29:18.516Z,30.20
2018-02-09T06:31:45.162Z,29.17
2018-02-09T06:34:11.795Z,29.45
2018-02-09T06:36:38.493Z,27.08
2018-02-09T06:39:05.111Z,30.95
2018-02-09T06:41:31.779Z,28.92
2018-02-09T06:43:58.401Z,28.85
2018-02-09T06:46:25.030Z,27.65
2018-02-09T06:48:51.652Z,28.87
2018-02-09T06:51:18.294Z,30.30
2018-02-09T06:53:44.932Z,29.17
2018-02-09T06:56:11.556Z,29.83
2018-02-09T06:58:38.713Z,29.90
2018-02-09T07:01:05.326Z,32.92
2018-02-09T07:03:31.989Z,28.70
2018-02-09T07:05:58.648Z,31.05
2018-02-09T07:08:25.292Z,32.28
2018-02-09T07:10:51.917Z,31.10
2018-02-09T07:13:18.564Z,29.23
2018-02-09T07:15:45.212Z,32.42
2018-02-09T07:18:11.865Z,28.58
2018-02-09T07:20:38.486Z,31.20
2018-02-09T07:23:09.659Z,31.55
2018-02-09T07:25:36.900Z,29.35
2018-02-09T07:28:03.535Z,29.42
2018-02-09T07:30:30.196Z,31.30
2018-02-09T07:32:56.881Z,31.10
2018-02-09T07:35:27.679Z,29.80
2018-02-09T07:37:55.058Z,29.60
2018-02-09T07:40:21.923Z,28.45
2018-02-09T07:42:48.566Z,32.42
2018-02-09T07:45:15.291Z,31.20
2018-02-09T07:47:41.953Z,29.30
2018-02-09T07:50:08.675Z,30.50
2018-02-09T07:52:35.678Z,29.50
2018-02-09T07:55:02.583Z,30.65
2018-02-09T07:57:29.335Z,31.92
2018-02-09T07:59:56.680Z,29.87
2018-02-09T08:02:23.384Z,33.20
2018-02-09T08:04:50.436Z,31.35
2018-02-09T08:07:17.216Z,32.30
2018-02-09T08:09:44.048Z,31.87
2018-02-09T08:12:11.464Z,29.58
2018-02-09T08:14:38.156Z,32.58
2018-02-09T08:17:05.458Z,30.62
2018-02-09T08:19:32.274Z,32.75
2018-02-09T08:21:59.092Z,32.42
2018-02-09T08:24:25.823Z,30.83
2018-02-09T08:26:52.555Z,30.70
2018-02-09T08:29:19.613Z,30.20
2018-02-09T08:31:46.409Z,30.40
2018-02-09T08:34:13.292Z,33.05
2018-02-09T08:36:40.077Z,32.58
2018-02-09T08:39:07.330Z,32.90
2018-02-09T08:41:34.109Z,35.55
2018-02-09T08:44:00.877Z,33.03
2018-02-09T08:46:27.766Z,32.30
2018-02-09T08:48:58.755Z,34.58
2018-02-09T08:51:25.673Z,32.35
2018-02-09T08:53:52.635Z,33.20
2018-02-09T08:56:19.434Z,35.45
2018-02-09T08:58:46.638Z,33.78
2018-02-09T09:01:17.475Z,36.47
2018-02-09T09:03:44.725Z,35.38
2018-02-09T09:06:11.733Z,36.28
2018-02-09T09:08:42.594Z,32.53
2018-02-09T09:11:13.621Z,34.25
2018-02-09T09:13:40.913Z,34.22
2018-02-09T09:16:07.761Z,37.45
2018-02-09T09:18:34.966Z,41.45
2018-02-09T09:21:02.118Z,33.80
2018-02-09T09:23:33.397Z,37.45
2018-02-09T09:26:00.387Z,35.35
2018-02-09T09:28:27.688Z,37.65
2018-02-09T09:30:55.038Z,35.25
2018-02-09T09:33:22.212Z,37.88
2018-02-09T09:35:52.140Z,38.70
2018-02-09T09:38:21.520Z,38.50
2018-02-09T09:40:52.416Z,35.90
2018-02-09T09:43:19.271Z,38.55
2018-02-09T09:45:46.430Z,39.97
2018-02-09T09:48:14.678Z,37.92
2018-02-09T09:50:41.744Z,38.55
2018-02-09T09:53:09.757Z,38.45
2018-02-09T09:55:40.995Z,41.10
2018-02-09T09:58:15.672Z,40.08
2018-02-09T10:13:57.314Z,48.85
2018-02-09T10:16:28.988Z,48.85
2018-02-09T10:18:59.463Z,44.83
2018-02-09T10:24:12.785Z,49.87
2018-02-09T10:26:41.947Z,48.33
2018-02-09T10:29:15.585Z,50.30
2018-02-09T10:37:15.993Z,56.37
2018-02-09T10:39:56.599Z,48.25
2018-02-09T10:42:24.088Z,47.55
2018-02-09T10:45:03.651Z,45.95
2018-02-09T10:47:35.854Z,75.35
2018-02-09T10:52:57.469Z,48.08
2018-02-09T10:55:31.569Z,47.72
2018-02-09T10:58:06.083Z,44.90
2018-02-09T11:00:45.079Z,42.50
2018-02-09T11:03:15.030Z,39.75
2018-02-09T11:05:42.765Z,41.20
2018-02-09T11:08:14.051Z,38.10
2018-02-09T11:10:47.415Z,38.85
2018-02-09T11:13:16.406Z,36.05
2018-02-09T11:15:44.145Z,37.92
2018-02-09T11:18:10.812Z,36.95
2018-02-09T11:20:37.519Z,36.30
2018-02-09T11:23:04.181Z,34.58
2018-02-09T11:25:31.060Z,33.92
2018-02-09T11:27:57.720Z,35.03
2018-02-09T11:30:25.316Z,35.95
2018-02-09T11:32:52.812Z,34.38
2018-02-09T11:35:19.529Z,34.05
2018-02-09T11:37:46.316Z,33.30
2018-02-09T11:40:13.763Z,35.53
2018-02-09T11:42:40.514Z,32.75
2018-02-09T11:45:07.188Z,35.50
2018-02-09T11:47:37.967Z,33.83
2018-02-09T11:50:08.494Z,29.92
2018-02-09T11:52:35.267Z,32.55
2018-02-09T11:55:01.911Z,32.88
2018-02-09T11:57:28.573Z,36.33
2018-02-09T11:59:55.263Z,32.92
2018-02-09T12:02:21.966Z,33.38
2018-02-09T12:04:48.636Z,32.75
2018-02-09T12:07:15.425Z,31.73
2018-02-09T12:09:42.226Z,33.88
2018-02-09T12:12:13.350Z,31.50
2018-02-09T12:14:40.138Z,34.70
2018-02-09T12:17:06.776Z,32.92
2018-02-09T12:19:33.449Z,30.60
2018-02-09T12:22:00.158Z,31.55
2018-02-09T12:24:26.831Z,32.65
2018-02-09T12:26:53.487Z,33.20
2018-02-09T12:29:20.170Z,32.17
2018-02-09T12:31:47.505Z,33.33
2018-02-09T12:34:14.862Z,32.85
2018-02-09T12:36:42.022Z,35.15
2018-02-09T12:39:08.711Z,32.40
2018-02-09T12:41:35.498Z,35.35
2018-02-09T12:44:02.169Z,35.80
2018-02-09T12:46:29.743Z,33.70
2018-02-09T12:49:02.484Z,30.42
2018-02-09T12:51:29.215Z,31.92
2018-02-09T12:53:55.939Z,32.13
2018-02-09T12:56:23.215Z,31.08
2018-02-09T12:58:49.922Z,32.95
2018-02-09T13:01:20.649Z,32.45
2018-02-09T13:03:48.170Z,32.67
2018-02-09T13:06:15.612Z,34.40
2018-02-09T13:08:42.281Z,33.15
2018-02-09T13:11:09.676Z,30.00
2018-02-09T13:13:36.313Z,32.75
2018-02-09T13:25:48.052Z,29.08
2018-02-09T13:28:21.469Z,31.17
2018-02-09T13:30:48.419Z,27.95
2018-02-09T13:33:21.141Z,30.83
2018-02-09T13:35:47.877Z,28.02
2018-02-09T13:38:14.685Z,32.83
2018-02-09T13:40:41.959Z,30.88
2018-02-09T13:43:08.695Z,30.42
2018-02-09T13:45:35.397Z,31.25
2018-02-09T13:48:07.997Z,32.70
2018-02-09T13:50:35.623Z,31.00
2018-02-09T13:53:02.303Z,30.80
2018-02-09T13:55:33.045Z,29.75
2018-02-09T13:58:07.637Z,29.63
2018-02-09T14:00:34.361Z,31.40
2018-02-09T14:03:02.171Z,30.52
2018-02-09T14:05:29.590Z,31.60
2018-02-09T14:07:56.422Z,32.10
2018-02-09T14:10:23.119Z,30.85
2018-02-09T14:12:51.565Z,31.02
2018-02-09T14:15:19.061Z,32.17
2018-02-09T14:17:46.552Z,31.52
2018-02-09T14:20:17.632Z,33.22
2018-02-09T14:22:48.424Z,31.42
2018-02-09T14:25:15.181Z,30.60
2018-02-09T14:27:42.749Z,34.35
2018-02-09T14:30:13.293Z,28.92
2018-02-09T14:32:40.098Z,31.75
2018-02-09T14:35:10.608Z,33.53
2018-02-09T14:37:37.415Z,30.17
2018-02-09T14:40:04.095Z,30.90
2018-02-09T14:42:31.979Z,30.00
2018-02-09T14:44:59.567Z,30.00
2018-02-09T14:47:26.254Z,33.28
2018-02-09T14:49:56.859Z,31.70
2018-02-09T14:52:23.593Z,32.03
2018-02-09T14:54:54.484Z,31.70
2018-02-09T14:57:25.431Z,30.80
2018-02-09T14:59:53.906Z,30.60
2018-02-09T15:02:21.229Z,29.85
2018-02-09T15:04:49.062Z,29.85
2018-02-09T15:07:16.630Z,30.08
2018-02-09T15:09:47.467Z,30.17
2018-02-09T15:12:14.759Z,33.15
2018-02-09T15:14:41.921Z,30.60
2018-02-09T15:17:16.939Z,31.58
2018-02-09T15:19:47.710Z,30.88
2018-02-09T15:22:18.591Z,28.58
2018-02-09T15:24:47.876Z,31.08
2018-02-09T15:27:14.657Z,33.38
2018-02-09T15:29:41.613Z,30.55
2018-02-09T15:32:09.376Z,30.27
2018-02-09T15:34:36.053Z,29.33
2018-02-09T15:37:07.011Z,29.85
2018-02-09T15:39:33.853Z,28.23
2018-02-09T15:42:00.708Z,27.73
2018-02-09T15:44:28.372Z,29.73
2018-02-09T15:46:58.581Z,27.75
2018-02-09T15:49:25.226Z,29.23
2018-02-09T15:51:55.748Z,28.52
2018-02-09T15:54:23.791Z,29.20
2018-02-09T15:56:50.440Z,26.50
2018-02-09T15:59:17.324Z,28.17
2018-02-09T16:01:44.556Z,29.30
2018-02-09T16:04:12.968Z,27.00
2018-02-09T16:06:39.702Z,27.25
2018-02-09T16:09:06.453Z,30.05
2018-02-09T16:11:34.904Z,29.30
2018-02-09T16:14:08.458Z,26.58
2018-02-09T16:16:35.571Z,27.35
2018-02-09T16:19:07.668Z,29.23
2018-02-09T16:21:34.458Z,28.00
2018-02-09T16:24:04.038Z,26.20
2018-02-09T16:26:31.938Z,26.90
2018-02-09T16:29:02.643Z,28.23
2018-02-09T16:31:30.197Z,27.90
2018-02-09T16:34:01.361Z,27.30
2018-02-09T16:36:36.311Z,28.30
2018-02-09T16:39:06.990Z,26.25
2018-02-09T16:41:34.964Z,29.55
2018-02-09T16:44:02.655Z,28.50
2018-02-09T16:46:31.403Z,26.20
2018-02-09T16:49:02.163Z,28.48
2018-02-09T16:51:33.631Z,25.20
2018-02-09T16:54:04.651Z,26.40
2018-02-09T16:56:35.727Z,23.95
2018-02-09T16:59:04.831Z,26.85
2018-02-09T17:01:33.744Z,26.42
2018-02-09T17:04:01.555Z,25.23
2018-02-09T17:06:30.532Z,27.85
2018-02-09T17:09:03.814Z,27.27
2018-02-09T17:11:32.771Z,25.88
2018-02-09T17:14:00.713Z,27.60
2018-02-09T17:16:29.307Z,26.52
2018-02-09T17:19:06.348Z,27.83
2018-02-09T17:21:41.203Z,28.75
2018-02-09T17:24:09.394Z,27.25
2018-02-09T17:26:40.182Z,24.60
2018-02-09T17:29:08.031Z,25.55
2018-02-09T17:31:34.886Z,27.30
2018-02-09T17:34:03.948Z,23.75
2018-02-09T17:36:32.231Z,25.90
2018-02-09T17:39:04.981Z,24.25
2018-02-09T17:41:32.470Z,23.42
2018-02-09T17:44:00.122Z,24.92
2018-02-09T17:46:28.337Z,25.40
2018-02-09T17:48:56.141Z,25.30
2018-02-09T17:51:23.625Z,25.12
2018-02-09T17:53:50.541Z,26.80
2018-02-09T17:56:18.491Z,26.52
2018-02-09T17:58:49.969Z,24.52
2018-02-09T18:01:16.666Z,26.62
2018-02-09T18:03:43.652Z,27.55
2018-02-09T18:06:10.364Z,26.55
2018-02-09T18:08:42.412Z,25.50
2018-02-09T18:11:09.090Z,27.87
2018-02-09T18:13:35.887Z,27.13
2018-02-09T18:16:02.560Z,24.05
2018-02-09T18:18:33.556Z,27.58
2018-02-09T18:21:00.377Z,25.83
2018-02-09T18:23:28.038Z,28.12
2018-02-09T18:25:55.021Z,28.45
2018-02-09T18:28:22.158Z,28.70
2018-02-09T18:30:49.415Z,29.50
2018-02-09T18:33:16.808Z,32.78
2018-02-09T18:35:44.140Z,29.77
2018-02-09T18:38:11.043Z,30.45
2018-02-09T18:40:37.824Z,30.75
2018-02-09T18:43:04.762Z,31.02
2018-02-09T18:45:33.400Z,32.85
2018-02-09T18:48:03.825Z,31.73
2018-02-09T18:50:33.607Z,28.75
2018-02-09T18:53:00.543Z,27.73
2018-02-09T18:55:31.636Z,30.58
2018-02-09T18:57:59.321Z,30.00
2018-02-09T19:00:26.283Z,27.80
2018-02-09T19:02:57.320Z,30.15
2018-02-09T19:05:30.756Z,34.75
2018-02-09T19:21:47.049Z,29.52
2018-02-09T19:24:17.812Z,45.67
2018-02-09T19:26:48.987Z,37.42
2018-02-09T19:29:23.864Z,34.45
2018-02-09T19:31:50.547Z,30.50
2018-02-09T19:34:17.384Z,26.75
2018-02-09T19:36:44.746Z,28.60
2018-02-09T19:39:11.640Z,24.95
2018-02-09T19:41:42.051Z,29.23
2018-02-09T19:44:08.756Z,28.02
2018-02-09T19:46:39.702Z,26.87
2018-02-09T19:49:06.512Z,26.77
2018-02-09T19:51:34.073Z,26.48
2018-02-09T19:54:00.763Z,30.40
2018-02-09T19:56:31.441Z,28.67
2018-02-09T19:59:02.344Z,30.15
2018-02-09T20:01:30.470Z,31.58
2018-02-09T20:03:58.091Z,27.65
2018-02-09T20:06:24.835Z,28.42
2018-02-09T20:08:52.228Z,27.73
2018-02-09T20:11:19.055Z,27.37
2018-02-09T20:13:46.571Z,28.33
2018-02-09T20:16:13.270Z,27.75
2018-02-09T20:18:39.982Z,32.67
2018-02-09T20:21:06.795Z,28.23
2018-02-09T20:23:33.474Z,28.30
2018-02-09T20:26:00.209Z,29.20
2018-02-09T20:28:30.525Z,27.90
2018-02-09T20:31:01.421Z,28.60
2018-02-09T20:33:29.842Z,26.40
2018-02-09T20:36:01.082Z,26.05
2018-02-09T20:38:28.911Z,26.02
2018-02-09T20:50:40.846Z,24.00
2018-02-09T20:53:07.633Z,24.85
2018-02-09T20:55:34.408Z,26.33
2018-02-09T20:58:01.178Z,24.40
2018-02-09T21:11:48.852Z,23.77
2018-02-09T21:14:16.317Z,23.52
2018-02-09T21:16:48.841Z,23.98
2018-02-09T21:19:15.576Z,24.50
2018-02-09T21:21:43.680Z,24.02
2018-02-09T21:24:10.338Z,25.42
2018-02-09T21:26:37.318Z,24.77
2018-02-09T21:29:04.158Z,23.15
2018-02-09T21:31:30.835Z,20.52
2018-02-09T21:33:57.501Z,22.92
2018-02-09T21:36:24.194Z,23.10
2018-02-09T21:38:50.851Z,23.12
2018-02-09T21:41:17.584Z,23.30
2018-02-09T21:43:44.312Z,23.60
2018-02-09T21:46:11.010Z,22.62
2018-02-09T21:48:38.378Z,23.85
2018-02-09T21:51:05.029Z,25.08
2018-02-09T21:53:31.717Z,24.00
2018-02-09T21:55:59.015Z,21.73
2018-02-09T21:58:25.703Z,22.87
2018-02-09T22:00:52.376Z,24.75
2018-02-09T22:03:19.056Z,24.85
2018-02-09T22:05:50.651Z,26.30
2018-02-09T22:08:17.374Z,25.30
2018-02-09T22:10:44.046Z,26.75
2018-02-09T22:13:10.751Z,25.27
2018-02-09T22:15:37.429Z,25.60
2018-02-09T22:18:04.090Z,24.35
2018-02-09T22:20:30.769Z,25.12
2018-02-09T22:22:57.451Z,25.15
2018-02-09T22:25:24.183Z,24.85
2018-02-09T22:27:54.613Z,24.95
2018-02-09T22:30:21.358Z,23.90
2018-02-09T22:32:48.028Z,22.95
2018-02-09T22:35:14.695Z,26.65
2018-02-09T22:37:41.396Z,26.73
2018-02-09T22:40:08.129Z,24.77
2018-02-09T22:42:34.831Z,23.62
2018-02-09T22:45:01.497Z,26.70
2018-02-09T22:47:28.154Z,22.60
2018-02-09T22:49:55.370Z,21.52
2018-02-09T22:52:22.028Z,24.92
2018-02-09T22:54:49.448Z,23.45
2018-02-09T22:57:16.149Z,37.70
2018-02-09T22:59:42.950Z,52.08
2018-02-09T23:02:09.695Z,45.80
2018-02-09T23:04:36.405Z,33.05
2018-02-09T23:07:03.074Z,33.90
2018-02-09T23:09:29.794Z,29.15
2018-02-09T23:11:56.453Z,26.77
2018-02-09T23:14:23.104Z,27.23
2018-02-09T23:16:49.824Z,26.17
2018-02-09T23:19:16.468Z,26.75
2018-02-09T23:21:43.143Z,27.65
2018-02-09T23:24:09.810Z,24.50
2018-02-09T23:26:36.468Z,24.80
2018-02-09T23:29:03.302Z,25.90
2018-02-09T23:31:29.958Z,24.85
2018-02-09T23:33:56.666Z,25.80
2018-02-09T23:36:24.178Z,23.58
2018-02-09T23:38:50.876Z,23.23
2018-02-09T23:41:18.324Z,23.30
2018-02-09T23:43:45.788Z,24.25
2018-02-09T23:46:12.470Z,23.85
2018-02-09T23:48:39.214Z,22.85
2018-02-09T23:51:05.902Z,22.00
2018-02-09T23:53:32.540Z,22.35
2018-02-09T23:55:59.606Z,20.85
2018-02-09T23:58:27.129Z,23.77
